Aeroporto :
LOGIN :

Iscrizione | Disclaimer

   EN    FR    IT 

 










Sommario :    VFR   VFR Marginale   IFR   IFR Intensivo   IFR Molto Intensivo
Visibilità : 
Base nubi : 
>= 8 km
>= 3000ft
5 / 8 km
1000 / 3000 ft
1500m / 5 km
500 / 1000 ft
800 / 1500m
200 / 500 ft
< 800m
< 200 ft
Simboli :   Temporali  Nebbia  Neve Forte  Precipitazioni Forti  Vento > 20 kt
SIGMETs :   Varie  Temporali  Ghiacco  Turbolenza  Onda orograficha  Ceneri Vulcaniche






- Altitudine del aeroporto : 194 ft
- Codice IATA : LME


LFRM - Le Mans

ULTIMO METAR :
  • 091030Z AUTO VRB02KT CAVOK 02/02 Q1010 NOSIG

METARs OBSOLETI :
  • 091000Z AUTO 16001KT CAVOK 01/01 Q1010 NOSIG
  • 090930Z AUTO VRB02KT CAVOK 01/00 Q1010 NOSIG
  • 090900Z AUTO VRB01KT 9000 NSC M00/M00 Q1010 NOSIG
  • 090830Z AUTO VRB01KT CAVOK M01/M01 Q1010 NOSIG
  • 090800Z AUTO VRB01KT CAVOK M01/M01 Q1010 NOSIG

TAF TAF LFRM
Valido dal 09 a 06 ore il 10 a 06 ore UTC


090500Z 0906/1006 VRB03KT CAVOK
BECMG 0914/0916 18012KT -RA
TEMPO 0915/0924 4500 BKN012
PROB40
TEMPO 0919/0923 3000 RADZ BKN005
BECMG 0923/1002 28015G25KT SCT020
TEMPO 1002/1004 28020G30KT
TEMPO 1002/1006 4000 SHRA BKN018TCU



MetMap, La meteo Aeronautica in un colpo d'occhio ! - Copyright ORBIFLY Dicembre 2007 - Disclaimer

ORBIFLY MET'MAP TEAM :

Programmazione e sviluppo : Alexandra Zaïnal
Concezione : Baudouin d'Aumeries
Aiuto per la programmazione : Marc-Olivier Méhu
Supporto tecnico e logistico : Manuel Goepfert
Aiuto per la traduzione : Arnaldo La Scala

Contatto : metmap@orbifly.com




FONTI E CREDITI :

   NOAA